In Rescue
 
Open Full Screen Window  High Contrast Mode
Wind Gusting 00 knots
05
January 17, 2021 12:22 PM CST
Weather Information
Wind Direction
  300 °
Wind Speed
  05 kt (6 mph)
Wind Gust
  00 kt (0 mph)
Altimeter
29.77 in
Visibility
7 SM
Temperature
-05° C
23° F
Dewpoint
-06° C
21° F
Humidity
93%
1hr Rain Fall
00.00 in.
24hr Rain Fall
00.00 in.
Sky Condition
Clear
VFR

METAR KGHW 171822Z AUTO 30005KT 7SM CLR M05/M06 A2977 RMK AO2

FAA Disclaimer: The data displayed is for advisory purposes only and is not to be used for flight planning or operations.